createdAt,value
2019-04-06T00:01:01.443Z,23.63
2019-04-06T00:03:32.377Z,20.97
2019-04-06T00:06:04.484Z,25.30
2019-04-06T00:08:35.353Z,22.57
2019-04-06T00:11:06.577Z,21.00
2019-04-06T00:13:37.486Z,25.30
2019-04-06T00:16:08.597Z,22.00
2019-04-06T00:18:39.499Z,23.90
2019-04-06T00:21:10.705Z,20.73
2019-04-06T00:23:41.594Z,23.43
2019-04-06T00:26:12.544Z,18.47
2019-04-06T00:28:43.574Z,20.30
2019-04-06T00:31:31.904Z,22.13
2019-04-06T00:34:02.948Z,19.53
2019-04-06T00:36:33.852Z,19.50
2019-04-06T00:39:06.415Z,23.70
2019-04-06T00:41:37.519Z,21.50
2019-04-06T00:44:08.681Z,19.03
2019-04-06T00:46:39.806Z,18.07
2019-04-06T00:49:10.662Z,20.73
2019-04-06T00:51:41.674Z,18.00
2019-04-06T00:54:12.567Z,21.27
2019-04-06T00:56:43.594Z,16.20
2019-04-06T00:59:14.648Z,21.23
2019-04-06T01:01:45.586Z,23.50
2019-04-06T01:04:16.534Z,17.17
2019-04-06T01:06:48.460Z,21.17
2019-04-06T01:09:19.366Z,19.53
2019-04-06T01:11:50.421Z,16.90
2019-04-06T01:14:21.293Z,19.53
2019-04-06T01:16:52.205Z,18.57
2019-04-06T01:19:23.257Z,17.57
2019-04-06T01:21:54.375Z,18.67
2019-04-06T01:24:26.357Z,18.50
2019-04-06T01:26:58.368Z,24.93
2019-04-06T01:29:29.325Z,20.93
2019-04-06T01:32:00.317Z,19.83
2019-04-06T01:34:31.239Z,21.67
2019-04-06T01:37:02.153Z,24.40
2019-04-06T01:39:33.026Z,18.77
2019-04-06T01:42:04.057Z,33.47
2019-04-06T01:44:35.126Z,32.30
2019-04-06T01:47:06.380Z,32.70
2019-04-06T01:49:37.370Z,23.20
2019-04-06T01:52:08.527Z,19.73
2019-04-06T01:54:39.453Z,27.73
2019-04-06T01:57:10.390Z,22.80
2019-04-06T01:59:41.288Z,21.10
2019-04-06T02:02:18.211Z,20.27
2019-04-06T02:04:49.366Z,20.40
2019-04-06T02:07:20.378Z,21.17
2019-04-06T02:09:51.266Z,20.87
2019-04-06T02:12:22.341Z,25.97
2019-04-06T02:14:53.235Z,23.37
2019-04-06T02:17:24.399Z,25.03
2019-04-06T02:19:55.431Z,22.20
2019-04-06T02:22:26.535Z,22.20
2019-04-06T02:24:57.730Z,25.50
2019-04-06T02:27:30.358Z,24.80
2019-04-06T02:30:19.073Z,27.23
2019-04-06T02:33:14.225Z,27.83
2019-04-06T02:35:53.816Z,25.53
2019-04-06T02:38:41.106Z,28.50
2019-04-06T02:41:20.691Z,23.77
2019-04-06T02:43:51.823Z,24.27
2019-04-06T02:46:22.770Z,24.10
2019-04-06T02:48:53.682Z,25.37
2019-04-06T02:51:24.721Z,24.27
2019-04-06T02:53:55.756Z,22.10
2019-04-06T02:56:26.857Z,21.40
2019-04-06T02:58:57.989Z,24.80
2019-04-06T03:01:29.184Z,23.53
2019-04-06T03:04:00.646Z,23.73
2019-04-06T03:06:31.592Z,22.57
2019-04-06T03:09:02.505Z,19.30
2019-04-06T03:11:34.896Z,23.90
2019-04-06T03:14:06.098Z,21.30
2019-04-06T03:16:37.145Z,21.97
2019-04-06T03:19:08.397Z,19.87
2019-04-06T03:21:39.494Z,24.13
2019-04-06T03:24:10.525Z,18.43
2019-04-06T03:26:41.426Z,20.37
2019-04-06T03:29:12.591Z,23.53
2019-04-06T03:31:43.610Z,20.67
2019-04-06T03:34:20.219Z,19.40
2019-04-06T03:36:47.216Z,19.47
2019-04-06T03:39:18.600Z,20.03
2019-04-06T03:41:49.850Z,20.10
2019-04-06T03:44:20.881Z,19.10
2019-04-06T03:46:51.897Z,26.00
2019-04-06T03:49:22.852Z,20.97
2019-04-06T03:51:53.845Z,22.77
2019-04-06T03:54:24.921Z,20.23
2019-04-06T03:56:55.943Z,20.47
2019-04-06T03:59:26.929Z,21.30
2019-04-06T04:01:58.080Z,20.07
2019-04-06T04:04:29.048Z,18.90
2019-04-06T04:07:00.189Z,21.93
2019-04-06T04:09:31.258Z,21.93
2019-04-06T04:12:02.190Z,26.57
2019-04-06T04:14:33.189Z,21.87
2019-04-06T04:17:04.326Z,21.70
2019-04-06T04:19:35.354Z,21.03
2019-04-06T04:22:06.513Z,26.37
2019-04-06T04:24:37.672Z,30.03
2019-04-06T04:27:08.852Z,36.60
2019-04-06T04:29:41.270Z,41.77
2019-04-06T04:32:12.402Z,31.13
2019-04-06T04:34:43.647Z,39.20
2019-04-06T04:37:14.794Z,41.70
2019-04-06T04:39:45.781Z,40.17
2019-04-06T04:42:16.839Z,33.37
2019-04-06T04:44:48.349Z,48.60
2019-04-06T04:47:19.442Z,39.13
2019-04-06T04:49:50.441Z,39.20
2019-04-06T04:52:21.418Z,33.87
2019-04-06T04:54:52.414Z,49.73
2019-04-06T04:57:23.592Z,33.70
2019-04-06T04:59:55.049Z,39.73
2019-04-06T05:02:26.101Z,24.37
2019-04-06T05:04:57.342Z,24.57
2019-04-06T05:07:28.281Z,30.97
2019-04-06T05:10:00.358Z,32.50
2019-04-06T05:12:31.303Z,34.57
2019-04-06T05:15:04.799Z,69.13
2019-04-06T05:17:35.706Z,53.80
2019-04-06T05:20:10.190Z,28.03
2019-04-06T05:22:41.225Z,22.93
2019-04-06T05:25:12.441Z,22.73
2019-04-06T05:27:51.833Z,20.70
2019-04-06T05:30:16.519Z,20.83
2019-04-06T05:32:47.498Z,20.87
2019-04-06T05:35:18.773Z,23.53
2019-04-06T05:37:49.704Z,21.93
2019-04-06T05:40:21.935Z,66.23
2019-04-06T05:42:52.972Z,39.67
2019-04-06T05:45:24.647Z,26.97
2019-04-06T05:47:55.722Z,28.30
2019-04-06T05:50:26.801Z,23.17
2019-04-06T05:52:57.823Z,20.53
2019-04-06T05:55:28.897Z,22.70
2019-04-06T05:58:04.311Z,24.03
2019-04-06T06:00:34.421Z,22.37
2019-04-06T06:03:05.703Z,43.70
2019-04-06T06:05:40.328Z,20.63
2019-04-06T06:08:09.390Z,20.40
2019-04-06T06:10:40.450Z,20.27
2019-04-06T06:13:11.453Z,22.47
2019-04-06T06:15:42.422Z,27.00
2019-04-06T06:18:13.508Z,20.73
2019-04-06T06:20:44.722Z,21.57
2019-04-06T06:23:15.638Z,24.93
2019-04-06T06:25:46.913Z,21.27
2019-04-06T06:28:18.064Z,20.73
2019-04-06T06:30:49.199Z,20.47
2019-04-06T06:33:20.193Z,24.47
2019-04-06T06:35:51.902Z,20.80
2019-04-06T06:38:22.988Z,22.20
2019-04-06T06:40:57.125Z,19.23
2019-04-06T06:43:29.189Z,20.70
2019-04-06T06:46:00.172Z,24.53
2019-04-06T06:48:31.168Z,20.67
2019-04-06T06:51:02.272Z,21.47
2019-04-06T06:53:34.047Z,23.03
2019-04-06T06:56:05.246Z,21.40
2019-04-06T06:58:36.828Z,21.23
2019-04-06T07:01:08.333Z,22.60
2019-04-06T07:03:41.715Z,21.67
2019-04-06T07:06:12.914Z,18.57
2019-04-06T07:08:44.202Z,20.70
2019-04-06T07:11:16.017Z,27.40
2019-04-06T07:13:47.092Z,21.57
2019-04-06T07:16:18.184Z,22.47
2019-04-06T07:18:49.267Z,20.77
2019-04-06T07:21:20.522Z,19.53
2019-04-06T07:23:51.657Z,18.87
2019-04-06T07:26:22.829Z,20.60
2019-04-06T07:28:53.870Z,21.43
2019-04-06T07:31:24.984Z,21.00
2019-04-06T07:33:56.144Z,22.60
2019-04-06T07:36:27.373Z,20.03
2019-04-06T07:38:58.286Z,20.27
2019-04-06T07:41:30.254Z,17.80
2019-04-06T07:44:01.529Z,23.37
2019-04-06T07:46:32.802Z,19.63
2019-04-06T07:49:18.984Z,20.17
2019-04-06T07:51:52.369Z,22.40
2019-04-06T07:54:23.350Z,22.23
2019-04-06T07:56:56.080Z,25.17
2019-04-06T07:59:27.220Z,23.70
2019-04-06T08:01:59.844Z,23.27
2019-04-06T08:04:30.845Z,21.90
2019-04-06T08:07:01.951Z,20.80
2019-04-06T08:09:33.112Z,20.17
2019-04-06T08:12:04.505Z,19.87
2019-04-06T08:14:35.709Z,25.23
2019-04-06T08:17:07.070Z,22.67
2019-04-06T08:19:41.453Z,21.73
2019-04-06T08:22:16.158Z,22.53
2019-04-06T08:24:47.785Z,21.37
2019-04-06T08:27:19.042Z,24.03
2019-04-06T08:29:50.167Z,23.40
2019-04-06T08:32:21.419Z,20.73
2019-04-06T08:34:53.060Z,23.33
2019-04-06T08:37:24.608Z,19.83
2019-04-06T08:39:56.309Z,18.67
2019-04-06T08:42:27.577Z,19.67
2019-04-06T08:44:59.654Z,23.90
2019-04-06T08:47:30.620Z,21.70
2019-04-06T08:50:02.086Z,21.20
2019-04-06T08:52:33.364Z,20.53
2019-04-06T08:55:05.220Z,18.53
2019-04-06T08:57:36.335Z,20.43
2019-04-06T09:00:07.833Z,16.67
2019-04-06T09:02:38.867Z,17.40
2019-04-06T09:05:10.018Z,22.57
2019-04-06T09:07:42.328Z,15.33
2019-04-06T09:10:13.954Z,24.20
2019-04-06T09:12:45.023Z,19.30
2019-04-06T09:15:17.947Z,18.93
2019-04-06T09:17:49.771Z,20.30
2019-04-06T09:20:20.964Z,22.97
2019-04-06T09:22:52.149Z,21.20
2019-04-06T09:25:24.897Z,20.83
2019-04-06T09:27:55.969Z,21.57
2019-04-06T09:30:27.196Z,19.70
2019-04-06T09:32:58.387Z,17.67
2019-04-06T09:35:29.920Z,23.07
2019-04-06T09:38:01.993Z,16.77
2019-04-06T09:40:34.080Z,17.63
2019-04-06T09:43:05.899Z,15.07
2019-04-06T09:45:53.786Z,18.27
2019-04-06T09:48:48.079Z,27.47
2019-04-06T09:51:36.906Z,16.30
2019-04-06T09:54:36.057Z,18.60
2019-04-06T09:57:35.024Z,20.93
2019-04-06T10:00:20.174Z,18.63
2019-04-06T10:02:57.706Z,18.77
2019-04-06T10:05:46.297Z,16.60
2019-04-06T10:08:31.636Z,19.33
2019-04-06T10:11:20.121Z,16.40
2019-04-06T10:14:15.107Z,17.27
2019-04-06T10:17:08.047Z,17.13
2019-04-06T10:20:04.188Z,18.90
2019-04-06T10:22:58.325Z,18.37
2019-04-06T10:25:52.494Z,20.50
2019-04-06T10:28:45.245Z,16.73
2019-04-06T10:31:36.079Z,16.50
2019-04-06T10:34:29.165Z,18.00
2019-04-06T10:37:37.379Z,19.80
2019-04-06T10:40:24.698Z,18.57
2019-04-06T10:43:17.025Z,18.33
2019-04-06T10:46:18.435Z,16.67
2019-04-06T10:49:10.918Z,24.00
2019-04-06T10:52:00.796Z,18.33
2019-04-06T10:54:56.792Z,33.77
2019-04-06T10:57:52.799Z,19.43
2019-04-06T11:00:49.105Z,22.47
2019-04-06T11:03:42.093Z,18.63
2019-04-06T11:06:18.105Z,18.63
2019-04-06T11:09:06.999Z,21.23
2019-04-06T11:11:59.551Z,21.47
2019-04-06T11:15:04.305Z,20.90
2019-04-06T11:17:57.622Z,20.07
2019-04-06T11:20:45.929Z,23.77
2019-04-06T11:23:38.735Z,19.27
2019-04-06T11:26:32.378Z,23.23
2019-04-06T11:29:20.785Z,17.60
2019-04-06T11:32:09.496Z,19.03
2019-04-06T11:34:57.962Z,16.20
2019-04-06T11:37:48.066Z,25.83
2019-04-06T11:40:44.578Z,16.90
2019-04-06T11:43:28.871Z,24.93
2019-04-06T11:46:11.541Z,26.63
2019-04-06T11:48:55.500Z,23.30
2019-04-06T11:52:03.345Z,31.93
2019-04-06T11:54:53.424Z,22.40
2019-04-06T11:57:56.988Z,20.87
2019-04-06T12:00:47.103Z,21.57
2019-04-06T12:03:36.260Z,24.30
2019-04-06T12:06:25.145Z,20.00
2019-04-06T12:09:08.131Z,18.87
2019-04-06T12:12:01.160Z,26.37
2019-04-06T12:14:53.724Z,23.43
2019-04-06T12:17:49.239Z,20.67
2019-04-06T12:20:31.943Z,29.27
2019-04-06T12:23:18.579Z,70.27
2019-04-06T12:25:59.856Z,28.40
2019-04-06T12:28:48.629Z,50.07
2019-04-06T12:31:51.258Z,26.03
2019-04-06T12:34:31.462Z,18.17
2019-04-06T12:37:20.892Z,20.13
2019-04-06T12:39:59.491Z,36.63
2019-04-06T12:42:53.788Z,17.33
2019-04-06T12:45:41.621Z,21.47
2019-04-06T12:48:34.873Z,16.20
2019-04-06T12:51:25.254Z,30.07
2019-04-06T12:54:03.440Z,14.83
2019-04-06T12:56:51.888Z,17.83
2019-04-06T12:59:44.334Z,16.50
2019-04-06T13:02:34.132Z,16.53
2019-04-06T13:05:25.965Z,16.77
2019-04-06T13:08:15.985Z,21.57
2019-04-06T13:11:09.025Z,19.43
2019-04-06T13:13:49.258Z,15.83
2019-04-06T13:16:30.819Z,21.33
2019-04-06T13:19:19.861Z,18.40
2019-04-06T13:22:08.342Z,22.73
2019-04-06T13:24:56.649Z,16.93
2019-04-06T13:27:37.798Z,14.73
2019-04-06T13:30:23.393Z,27.10
2019-04-06T13:33:16.436Z,21.93
2019-04-06T13:35:53.492Z,15.40
2019-04-06T13:38:52.169Z,15.03
2019-04-06T13:41:41.407Z,14.60
2019-04-06T13:44:29.758Z,154.80
2019-04-06T13:47:16.870Z,16.87
2019-04-06T13:50:08.461Z,17.50
2019-04-06T13:53:00.829Z,34.43
2019-04-06T13:55:42.747Z,16.93
2019-04-06T13:58:35.603Z,12.93
2019-04-06T14:01:17.630Z,14.47
2019-04-06T14:04:06.644Z,19.70
2019-04-06T14:06:59.362Z,14.47
2019-04-06T14:09:45.561Z,26.13
2019-04-06T14:12:28.538Z,15.93
2019-04-06T14:15:18.891Z,18.20
2019-04-06T14:18:07.408Z,13.77
2019-04-06T14:21:03.690Z,16.10
2019-04-06T14:24:02.741Z,11.50
2019-04-06T14:27:00.086Z,14.30
2019-04-06T14:29:39.793Z,14.10
2019-04-06T14:32:42.283Z,15.90
2019-04-06T14:35:50.040Z,12.97
2019-04-06T14:38:34.846Z,13.70
2019-04-06T14:41:38.081Z,14.47
2019-04-06T14:44:27.406Z,19.83
2019-04-06T14:47:28.336Z,15.47
2019-04-06T14:50:27.504Z,14.17
2019-04-06T14:53:29.640Z,14.97
2019-04-06T14:56:11.100Z,18.77
2019-04-06T14:58:59.883Z,25.60
2019-04-06T15:01:58.916Z,17.83
2019-04-06T15:04:37.343Z,13.03
2019-04-06T15:07:26.118Z,21.30
2019-04-06T15:10:15.164Z,24.67
2019-04-06T15:13:05.578Z,16.90
2019-04-06T15:15:58.864Z,21.70
2019-04-06T15:18:51.353Z,17.97
2019-04-06T15:21:54.903Z,20.83
2019-04-06T15:24:41.851Z,17.03
2019-04-06T15:27:38.167Z,19.80
2019-04-06T15:30:25.801Z,21.13
2019-04-06T15:33:34.606Z,15.83
2019-04-06T15:36:28.736Z,24.33
2019-04-06T15:39:18.355Z,14.90
2019-04-06T15:42:03.736Z,16.07
2019-04-06T15:45:12.285Z,19.10
2019-04-06T15:48:02.170Z,20.47
2019-04-06T15:51:04.794Z,18.23
2019-04-06T15:53:45.771Z,20.27
2019-04-06T15:56:33.995Z,23.57
2019-04-06T15:59:29.905Z,20.97
2019-04-06T16:02:22.675Z,16.30
2019-04-06T16:05:13.007Z,20.90
2019-04-06T16:08:01.452Z,25.57
2019-04-06T16:10:49.382Z,20.50
2019-04-06T16:13:38.150Z,18.37
2019-04-06T16:16:32.175Z,19.17
2019-04-06T16:19:20.956Z,18.93
2019-04-06T16:22:13.697Z,23.47
2019-04-06T16:25:04.285Z,23.13
2019-04-06T16:27:51.939Z,18.27
2019-04-06T16:30:38.618Z,16.97
2019-04-06T16:33:22.173Z,18.73
2019-04-06T16:36:00.901Z,19.57
2019-04-06T16:38:54.018Z,20.07
2019-04-06T16:41:56.708Z,17.20
2019-04-06T16:44:33.056Z,23.60
2019-04-06T16:47:21.783Z,26.70
2019-04-06T16:50:16.101Z,23.10
2019-04-06T16:53:10.410Z,18.43
2019-04-06T16:55:57.130Z,20.93
2019-04-06T16:58:47.249Z,26.17
2019-04-06T17:01:40.489Z,33.90
2019-04-06T17:04:21.578Z,20.17
2019-04-06T17:07:14.483Z,21.40
2019-04-06T17:10:10.511Z,21.30
2019-04-06T17:13:17.054Z,24.23
2019-04-06T17:16:22.531Z,29.10
2019-04-06T17:19:05.163Z,42.10
2019-04-06T17:21:57.713Z,33.33
2019-04-06T17:24:40.161Z,27.73
2019-04-06T17:27:18.810Z,26.87
2019-04-06T17:30:14.642Z,22.33
2019-04-06T17:33:03.209Z,22.50
2019-04-06T17:35:53.549Z,30.07
2019-04-06T17:38:41.645Z,35.83
2019-04-06T17:41:37.437Z,29.03
2019-04-06T17:44:29.413Z,48.30
2019-04-06T17:47:33.111Z,29.77
2019-04-06T17:50:22.501Z,39.07
2019-04-06T17:53:15.607Z,41.00
2019-04-06T17:56:15.140Z,34.80
2019-04-06T17:59:05.617Z,34.77
2019-04-06T18:01:43.817Z,41.20
2019-04-06T18:04:33.901Z,37.23
2019-04-06T18:07:24.256Z,29.73
2019-04-06T18:10:06.203Z,30.43
2019-04-06T18:13:02.146Z,36.30
2019-04-06T18:15:33.672Z,33.07
2019-04-06T18:18:04.885Z,48.70
2019-04-06T18:20:35.938Z,57.87
2019-04-06T18:23:07.312Z,64.77
2019-04-06T18:25:38.938Z,53.17
2019-04-06T18:28:10.603Z,79.23
2019-04-06T18:30:41.785Z,96.87
2019-04-06T18:33:17.402Z,358.53
2019-04-06T18:35:48.604Z,69.53
2019-04-06T18:38:25.350Z,46.50
2019-04-06T18:40:56.879Z,54.77
2019-04-06T18:43:29.401Z,43.63
2019-04-06T18:46:01.196Z,38.57
2019-04-06T18:48:33.304Z,36.03
2019-04-06T18:51:05.836Z,46.83
2019-04-06T18:53:37.560Z,87.70
2019-04-06T18:56:09.792Z,75.13
2019-04-06T18:58:40.971Z,51.13
2019-04-06T19:01:12.198Z,97.97
2019-04-06T19:03:43.500Z,202.43
2019-04-06T19:06:14.708Z,56.07
2019-04-06T19:08:45.851Z,172.00
2019-04-06T19:11:18.279Z,118.87
2019-04-06T19:13:49.904Z,135.27
2019-04-06T19:16:41.139Z,97.47
2019-04-06T19:19:12.592Z,145.50
2019-04-06T19:21:44.837Z,406.90
2019-04-06T19:24:16.588Z,247.73
2019-04-06T19:26:56.707Z,300.90
2019-04-06T19:29:31.750Z,646.17
2019-04-06T19:32:06.967Z,412.17
2019-04-06T19:34:38.395Z,296.67
2019-04-06T19:37:10.361Z,670.87
2019-04-06T19:39:41.487Z,475.20
2019-04-06T19:42:12.796Z,336.40
2019-04-06T19:44:43.882Z,556.70
2019-04-06T19:47:14.942Z,253.73
2019-04-06T19:49:46.657Z,330.57
2019-04-06T19:52:18.722Z,205.70
2019-04-06T19:54:50.213Z,184.33
2019-04-06T19:57:22.048Z,206.27
2019-04-06T19:59:53.026Z,233.47
2019-04-06T20:02:24.211Z,128.37
2019-04-06T20:04:56.350Z,135.77
2019-04-06T20:07:27.669Z,141.13
2019-04-06T20:09:59.347Z,208.83
2019-04-06T20:12:30.415Z,211.10
2019-04-06T20:15:01.849Z,342.80
2019-04-06T20:17:33.273Z,212.80
2019-04-06T20:20:05.393Z,291.50
2019-04-06T20:22:38.448Z,315.73
2019-04-06T20:25:10.123Z,260.63
2019-04-06T20:27:42.020Z,220.70
2019-04-06T20:30:13.598Z,237.10
2019-04-06T20:32:44.798Z,211.77
2019-04-06T20:35:16.075Z,233.67
2019-04-06T20:37:47.186Z,225.63
2019-04-06T20:40:18.753Z,226.50
2019-04-06T20:42:49.932Z,204.93
2019-04-06T20:45:21.033Z,193.00
2019-04-06T20:47:52.402Z,186.60
2019-04-06T20:50:23.506Z,208.17
2019-04-06T20:52:54.671Z,192.63
2019-04-06T20:55:25.793Z,213.63
2019-04-06T20:57:56.772Z,243.63
2019-04-06T21:00:27.818Z,224.97
2019-04-06T21:02:58.971Z,311.73
2019-04-06T21:05:30.203Z,279.73
2019-04-06T21:08:01.104Z,227.70
2019-04-06T21:10:33.368Z,239.93
2019-04-06T21:13:04.487Z,231.43
2019-04-06T21:15:35.799Z,258.30
2019-04-06T21:18:07.993Z,263.73
2019-04-06T21:20:39.308Z,293.93
2019-04-06T21:23:10.660Z,287.57
2019-04-06T21:25:46.764Z,271.70
2019-04-06T21:28:18.177Z,259.30
2019-04-06T21:30:49.353Z,268.40
2019-04-06T21:33:20.328Z,248.53
2019-04-06T21:35:51.356Z,247.40
2019-04-06T21:38:22.752Z,240.93
2019-04-06T21:40:55.128Z,227.00
2019-04-06T21:43:26.344Z,223.60
2019-04-06T21:45:57.605Z,195.73
2019-04-06T21:48:28.830Z,203.13
2019-04-06T21:51:00.099Z,204.93
2019-04-06T21:53:31.046Z,188.07
2019-04-06T21:56:07.088Z,185.13
2019-04-06T21:58:34.979Z,216.10
2019-04-06T22:01:07.325Z,212.17
2019-04-06T22:03:39.085Z,203.83
2019-04-06T22:06:10.567Z,192.80
2019-04-06T22:08:41.805Z,169.77
2019-04-06T22:11:12.898Z,199.73
2019-04-06T22:13:44.255Z,330.80
2019-04-06T22:16:15.466Z,239.00
2019-04-06T22:18:46.461Z,221.83
2019-04-06T22:21:17.915Z,189.43
2019-04-06T22:23:48.893Z,190.83
2019-04-06T22:26:20.043Z,208.40
2019-04-06T22:28:51.005Z,228.00
2019-04-06T22:31:22.414Z,178.47
2019-04-06T22:33:54.543Z,270.67
2019-04-06T22:36:25.671Z,231.03
2019-04-06T22:38:56.645Z,234.13
2019-04-06T22:41:27.675Z,194.53
2019-04-06T22:43:58.685Z,160.33
2019-04-06T22:46:29.703Z,160.53
2019-04-06T22:49:00.986Z,159.60
2019-04-06T22:51:32.191Z,166.90
2019-04-06T22:54:03.718Z,150.97
2019-04-06T22:56:34.936Z,146.07
2019-04-06T22:59:06.320Z,141.07
2019-04-06T23:01:40.055Z,143.20
2019-04-06T23:04:28.769Z,151.43
2019-04-06T23:07:06.550Z,137.40
2019-04-06T23:09:37.531Z,137.70
2019-04-06T23:12:08.698Z,131.17
2019-04-06T23:14:39.832Z,140.47
2019-04-06T23:17:11.248Z,139.00
2019-04-06T23:19:42.886Z,150.90
2019-04-06T23:22:14.221Z,134.47
2019-04-06T23:24:45.550Z,129.67
2019-04-06T23:27:16.720Z,131.33
2019-04-06T23:29:48.532Z,141.20
2019-04-06T23:32:20.362Z,131.00
2019-04-06T23:34:59.427Z,139.97
2019-04-06T23:37:24.364Z,133.67
2019-04-06T23:39:56.133Z,137.90
2019-04-06T23:42:27.370Z,129.47
2019-04-06T23:44:58.291Z,165.33
2019-04-06T23:47:29.719Z,133.83
2019-04-06T23:50:00.877Z,152.37
2019-04-06T23:52:31.940Z,150.87
2019-04-06T23:55:02.897Z,133.80
2019-04-06T23:57:34.153Z,143.73
